createdAt,value
2023-04-20T00:01:20.090Z,100581.67
2023-04-20T00:04:11.770Z,100580.89
2023-04-20T00:06:58.029Z,100579.02
2023-04-20T00:09:43.221Z,100584.48
2023-04-20T00:12:34.732Z,100583.86
2023-04-20T00:21:28.279Z,100576.64
2023-04-20T00:24:13.552Z,100581.09
2023-04-20T00:26:58.681Z,100573.21
2023-04-20T00:32:42.293Z,100573.52
2023-04-20T00:35:28.259Z,100574.25
2023-04-20T00:38:13.578Z,100581.59
2023-04-20T00:40:58.665Z,100585.27
2023-04-20T00:43:50.877Z,100584.25
2023-04-20T00:46:36.679Z,100583.77
2023-04-20T00:49:21.587Z,100587.27
2023-04-20T00:52:07.225Z,100584.45
2023-04-20T00:54:52.305Z,100583.15
2023-04-20T00:57:37.920Z,100584.25
2023-04-20T01:00:23.398Z,100579.66
2023-04-20T01:03:09.126Z,100582.56
2023-04-20T01:08:57.273Z,100576.77
2023-04-20T01:11:42.209Z,100569.32
2023-04-20T01:14:27.134Z,100570.20
2023-04-20T01:17:14.425Z,100573.39
2023-04-20T01:20:00.256Z,100566.92
2023-04-20T01:25:24.649Z,100570.39
2023-04-20T01:28:13.963Z,100570.33
2023-04-20T01:31:00.757Z,100572.91
2023-04-20T01:33:46.381Z,100569.20
2023-04-20T01:39:47.748Z,100566.77
2023-04-20T01:42:33.565Z,100562.61
2023-04-20T01:45:19.141Z,100559.34
2023-04-20T01:48:04.756Z,100559.56
2023-04-20T01:50:53.453Z,100555.55
2023-04-20T01:53:38.504Z,100557.75
2023-04-20T01:56:24.110Z,100554.53
2023-04-20T01:59:09.266Z,100550.48
2023-04-20T02:01:54.366Z,100546.44
2023-04-20T02:07:12.478Z,100546.30
2023-04-20T02:10:18.357Z,100547.08
2023-04-20T02:13:04.904Z,100540.91
2023-04-20T02:15:51.216Z,100546.86
2023-04-20T02:18:36.806Z,100549.47
2023-04-20T02:21:22.234Z,100547.02
2023-04-20T02:24:07.527Z,100553.70
2023-04-20T02:26:52.898Z,100548.08
2023-04-20T02:29:38.322Z,100540.40
2023-04-20T02:32:23.790Z,100535.02
2023-04-20T02:38:06.827Z,100546.21
2023-04-20T02:40:52.232Z,100542.93
2023-04-20T02:43:37.009Z,100543.33
2023-04-20T02:46:22.103Z,100549.61
2023-04-20T02:49:07.695Z,100548.99
2023-04-20T02:51:52.813Z,100541.56
2023-04-20T02:54:37.699Z,100544.35
2023-04-20T02:57:24.681Z,100547.42
2023-04-20T03:00:12.708Z,100543.71
2023-04-20T03:02:58.071Z,100541.92
2023-04-20T03:05:44.203Z,100540.52
2023-04-20T03:08:29.467Z,100536.38
2023-04-20T03:11:15.348Z,100535.04
2023-04-20T03:14:03.292Z,100538.80
2023-04-20T03:16:51.038Z,100541.13
2023-04-20T03:22:30.097Z,100543.39
2023-04-20T03:25:16.843Z,100542.89
2023-04-20T03:28:02.482Z,100540.21
2023-04-20T03:30:47.582Z,100544.69
2023-04-20T03:33:32.650Z,100540.00
2023-04-20T03:36:17.994Z,100541.89
2023-04-20T03:39:03.847Z,100544.15
2023-04-20T03:41:48.866Z,100543.98
2023-04-20T03:44:33.735Z,100549.96
2023-04-20T03:47:19.076Z,100553.82
2023-04-20T03:53:20.529Z,100556.73
2023-04-20T03:56:07.522Z,100562.63
2023-04-20T03:58:54.141Z,100563.05
2023-04-20T04:01:40.030Z,100568.15
2023-04-20T04:04:25.660Z,100560.05
2023-04-20T04:07:11.107Z,100554.77
2023-04-20T04:09:56.148Z,100554.55
2023-04-20T04:12:41.197Z,100555.59
2023-04-20T04:15:26.401Z,100555.23
2023-04-20T04:18:11.563Z,100556.62
2023-04-20T04:20:57.516Z,100559.63
2023-04-20T04:23:42.581Z,100559.64
2023-04-20T04:26:28.142Z,100558.35
2023-04-20T04:29:13.281Z,100563.77
2023-04-20T04:34:53.246Z,100572.19
2023-04-20T04:37:39.192Z,100573.16
2023-04-20T04:40:24.737Z,100576.23
2023-04-20T04:43:10.698Z,100578.44
2023-04-20T04:45:57.798Z,100584.67
2023-04-20T04:48:42.879Z,100581.71
2023-04-20T04:57:44.783Z,100577.15
2023-04-20T05:00:31.707Z,100580.04
2023-04-20T05:03:18.174Z,100574.65
2023-04-20T05:09:05.424Z,100574.98
2023-04-20T05:11:50.906Z,100581.73
2023-04-20T05:17:29.695Z,100576.76
2023-04-20T05:20:15.953Z,100582.52
2023-04-20T05:23:01.078Z,100582.89
2023-04-20T05:25:46.226Z,100582.73
2023-04-20T05:28:33.987Z,100584.45
2023-04-20T05:31:19.556Z,100587.88
2023-04-20T05:34:04.726Z,100589.67
2023-04-20T05:36:51.640Z,100589.01
2023-04-20T05:39:36.776Z,100594.48
2023-04-20T05:42:22.003Z,100595.83
2023-04-20T05:45:08.391Z,100595.28
2023-04-20T05:51:02.493Z,100592.61
2023-04-20T05:57:34.206Z,100598.52
2023-04-20T06:09:34.332Z,100606.59
2023-04-20T06:12:19.405Z,100611.19
2023-04-20T06:15:10.097Z,100610.46
2023-04-20T06:17:56.078Z,100614.58
2023-04-20T06:26:54.369Z,100615.61
2023-04-20T06:42:41.015Z,100636.70
2023-04-20T06:45:28.661Z,100632.60
2023-04-20T06:51:08.462Z,100631.27
2023-04-20T06:53:57.523Z,100631.48
2023-04-20T06:56:44.178Z,100627.38
2023-04-20T06:59:31.252Z,100634.07
2023-04-20T07:02:22.366Z,100636.67
2023-04-20T07:05:07.876Z,100642.48
2023-04-20T07:10:35.482Z,100641.45
2023-04-20T07:13:24.882Z,100639.61
2023-04-20T07:16:11.116Z,100641.12
2023-04-20T07:18:58.141Z,100645.38
2023-04-20T07:21:43.950Z,100648.05
2023-04-20T07:24:29.272Z,100644.16
2023-04-20T07:27:14.267Z,100646.84
2023-04-20T07:33:09.249Z,100645.14
2023-04-20T07:35:58.671Z,100642.67
2023-04-20T07:38:45.709Z,100642.80
2023-04-20T07:44:51.785Z,100657.81
2023-04-20T07:53:14.566Z,100655.58
2023-04-20T07:59:15.725Z,100658.59
2023-04-20T08:02:03.596Z,100656.62
2023-04-20T08:04:52.973Z,100654.44
2023-04-20T08:11:00.695Z,100658.02
2023-04-20T08:16:57.498Z,100651.52
2023-04-20T08:20:09.024Z,100653.59
2023-04-20T08:22:54.919Z,100659.86
2023-04-20T08:25:42.998Z,100660.72
2023-04-20T08:34:37.144Z,100657.02
2023-04-20T08:37:23.553Z,100647.11
2023-04-20T08:43:51.614Z,100648.60
2023-04-20T08:46:39.232Z,100655.05
2023-04-20T08:49:28.326Z,100659.26
2023-04-20T08:52:13.499Z,100659.05
2023-04-20T08:54:58.696Z,100654.45
2023-04-20T08:57:44.579Z,100654.05
2023-04-20T09:00:29.847Z,100656.87
2023-04-20T09:03:15.359Z,100659.14
2023-04-20T09:06:00.715Z,100655.83
2023-04-20T09:08:46.450Z,100658.40
2023-04-20T09:11:31.744Z,100655.35
2023-04-20T09:14:20.674Z,100659.43
2023-04-20T09:17:07.216Z,100659.69
2023-04-20T09:19:53.793Z,100662.59
2023-04-20T09:22:41.009Z,100663.53
2023-04-20T09:25:27.804Z,100663.05
2023-04-20T09:28:14.502Z,100663.45
2023-04-20T09:30:59.791Z,100666.55
2023-04-20T09:33:45.206Z,100666.77
2023-04-20T09:36:40.523Z,100664.14
2023-04-20T09:39:26.320Z,100663.25
2023-04-20T09:42:13.219Z,100662.73
2023-04-20T09:45:00.197Z,100656.98
2023-04-20T09:47:47.248Z,100651.58
2023-04-20T09:50:47.965Z,100648.60
2023-04-20T09:53:35.227Z,100643.52
2023-04-20T09:56:21.455Z,100645.59
2023-04-20T09:59:07.564Z,100641.58
2023-04-20T10:01:53.110Z,100643.30
2023-04-20T10:05:00.767Z,100642.73
2023-04-20T10:10:47.280Z,100639.74
2023-04-20T10:13:34.393Z,100640.14
2023-04-20T10:16:20.936Z,100636.88
2023-04-20T10:19:08.950Z,100633.58
2023-04-20T10:21:54.970Z,100632.09
2023-04-20T10:24:39.986Z,100630.36
2023-04-20T10:27:25.538Z,100635.21
2023-04-20T10:30:11.607Z,100632.70
2023-04-20T10:33:04.451Z,100629.20
2023-04-20T10:35:52.467Z,100631.70
2023-04-20T10:38:38.089Z,100626.34
2023-04-20T10:41:23.503Z,100627.38
2023-04-20T10:44:09.214Z,100626.05
2023-04-20T10:50:07.662Z,100621.35
2023-04-20T10:52:54.333Z,100621.00
2023-04-20T10:55:40.843Z,100615.20
2023-04-20T10:58:26.771Z,100609.07
2023-04-20T11:01:12.189Z,100612.39
2023-04-20T11:03:57.403Z,100608.45
2023-04-20T11:06:47.514Z,100611.28
2023-04-20T11:09:35.105Z,100605.48
2023-04-20T11:15:36.489Z,100604.16
2023-04-20T11:18:51.394Z,100599.47
2023-04-20T11:21:41.953Z,100600.69
2023-04-20T11:24:29.363Z,100598.45
2023-04-20T11:27:24.159Z,100594.95
2023-04-20T11:30:10.071Z,100592.34
2023-04-20T11:32:55.878Z,100593.96
2023-04-20T11:35:42.237Z,100588.02
2023-04-20T11:38:31.635Z,100581.16
2023-04-20T11:41:17.785Z,100577.14
2023-04-20T11:44:05.235Z,100576.11
2023-04-20T11:46:53.650Z,100576.14
2023-04-20T11:49:39.072Z,100571.56
2023-04-20T12:05:42.877Z,100562.63
2023-04-20T12:08:28.347Z,100560.77
2023-04-20T12:17:57.538Z,100551.64
2023-04-20T12:20:45.213Z,100539.61
2023-04-20T12:23:30.539Z,100545.59
2023-04-20T12:26:16.114Z,100540.13
2023-04-20T12:29:01.843Z,100536.62
2023-04-20T12:31:46.963Z,100530.59
2023-04-20T12:34:31.799Z,100525.80
2023-04-20T12:37:16.873Z,100525.09
2023-04-20T12:40:01.810Z,100526.52
2023-04-20T12:42:47.662Z,100524.27
2023-04-20T12:45:33.307Z,100519.27
2023-04-20T12:48:19.130Z,100523.83
2023-04-20T12:51:04.257Z,100521.55
2023-04-20T12:53:49.300Z,100519.34
2023-04-20T12:56:35.437Z,100517.11
2023-04-20T12:59:20.669Z,100518.29
2023-04-20T13:02:05.985Z,100512.20
2023-04-20T13:04:52.087Z,100513.52
2023-04-20T13:07:36.998Z,100516.55
2023-04-20T13:10:22.201Z,100508.83
2023-04-20T13:13:06.929Z,100504.89
2023-04-20T13:15:55.570Z,100505.98
2023-04-20T13:18:40.582Z,100504.66
2023-04-20T13:21:25.977Z,100504.23
2023-04-20T13:24:11.462Z,100502.77
2023-04-20T13:26:56.742Z,100503.44
2023-04-20T13:29:41.931Z,100499.96
2023-04-20T13:32:27.239Z,100504.85
2023-04-20T13:35:14.043Z,100497.27
2023-04-20T13:37:59.487Z,100497.98
2023-04-20T13:40:46.252Z,100499.98
2023-04-20T13:43:31.222Z,100504.21
2023-04-20T13:46:16.651Z,100503.10
2023-04-20T13:49:02.102Z,100498.99
2023-04-20T13:51:47.664Z,100497.61
2023-04-20T13:54:32.984Z,100495.65
2023-04-20T13:57:17.958Z,100499.96
2023-04-20T14:00:04.732Z,100502.45
2023-04-20T14:02:50.433Z,100498.25
2023-04-20T14:05:38.119Z,100495.86
2023-04-20T14:08:23.114Z,100491.23
2023-04-20T14:11:08.598Z,100489.48
2023-04-20T14:13:53.645Z,100489.79
2023-04-20T14:16:48.935Z,100483.88
2023-04-20T14:19:33.795Z,100483.48
2023-04-20T14:22:18.686Z,100487.14
2023-04-20T14:25:04.368Z,100485.09
2023-04-20T14:27:49.427Z,100488.06
2023-04-20T14:30:34.588Z,100486.30
2023-04-20T14:33:19.997Z,100485.67
2023-04-20T14:36:05.418Z,100488.34
2023-04-20T14:38:50.773Z,100482.55
2023-04-20T14:41:36.346Z,100480.85
2023-04-20T14:44:21.335Z,100477.89
2023-04-20T14:56:44.068Z,100465.73
2023-04-20T15:09:19.910Z,100468.23
2023-04-20T15:19:19.578Z,100464.10
2023-04-20T15:22:04.966Z,100462.91
2023-04-20T15:24:50.743Z,100460.69
2023-04-20T15:27:35.980Z,100458.48
2023-04-20T15:36:52.212Z,100464.27
2023-04-20T15:42:30.203Z,100462.02
2023-04-20T15:45:15.835Z,100465.75
2023-04-20T15:48:01.250Z,100465.67
2023-04-20T15:50:51.242Z,100466.05
2023-04-20T15:56:53.205Z,100464.69
2023-04-20T16:15:44.096Z,100460.23
2023-04-20T16:28:16.172Z,100468.08
2023-04-20T16:34:17.343Z,100465.59
2023-04-20T16:37:02.995Z,100461.95
2023-04-20T16:39:48.331Z,100464.02
2023-04-20T16:42:33.754Z,100463.23
2023-04-20T16:45:27.608Z,100466.43
2023-04-20T16:48:13.459Z,100460.52
2023-04-20T16:50:59.773Z,100460.59
2023-04-20T16:53:48.186Z,100456.98
2023-04-20T16:56:33.733Z,100458.53
2023-04-20T16:59:18.709Z,100464.65
2023-04-20T17:04:57.263Z,100464.68
2023-04-20T17:07:45.920Z,100469.81
2023-04-20T17:13:11.228Z,100466.02
2023-04-20T17:15:58.037Z,100464.25
2023-04-20T17:21:37.388Z,100472.86
2023-04-20T17:27:38.886Z,100479.00
2023-04-20T17:36:47.382Z,100485.42
2023-04-20T17:39:32.502Z,100484.94
2023-04-20T17:42:19.001Z,100483.06
2023-04-20T17:45:05.332Z,100483.65
2023-04-20T17:47:52.823Z,100486.70
2023-04-20T17:50:37.855Z,100486.21
2023-04-20T17:53:22.937Z,100483.26
2023-04-20T17:56:08.260Z,100479.81
2023-04-20T17:58:54.217Z,100478.45
2023-04-20T18:08:09.580Z,100480.77
2023-04-20T18:13:56.606Z,100482.92
2023-04-20T18:16:41.986Z,100481.52
2023-04-20T18:22:43.164Z,100486.12
2023-04-20T18:25:28.616Z,100491.05
2023-04-20T18:28:13.551Z,100486.23
2023-04-20T18:31:00.599Z,100493.38
2023-04-20T18:33:45.640Z,100500.95
2023-04-20T18:46:52.498Z,100500.30
2023-04-20T18:49:38.378Z,100498.27
2023-04-20T18:52:23.928Z,100499.77
2023-04-20T18:55:09.170Z,100501.02
2023-04-20T18:57:54.589Z,100500.44
2023-04-20T19:00:39.352Z,100501.98
2023-04-20T19:03:25.413Z,100504.40
2023-04-20T19:06:10.963Z,100505.95
2023-04-20T19:08:56.260Z,100507.52
2023-04-20T19:11:42.109Z,100503.31
2023-04-20T19:14:27.960Z,100506.70
2023-04-20T19:30:36.028Z,100503.13
2023-04-20T19:40:21.407Z,100506.76
2023-04-20T19:43:06.375Z,100512.30
2023-04-20T19:45:51.501Z,100516.85
2023-04-20T19:48:37.051Z,100515.05
2023-04-20T19:51:24.874Z,100513.43
2023-04-20T19:57:07.022Z,100519.40
2023-04-20T20:03:08.608Z,100519.79
2023-04-20T20:05:53.647Z,100514.83
2023-04-20T20:08:38.598Z,100516.27
2023-04-20T20:11:24.737Z,100521.33
2023-04-20T20:14:10.011Z,100519.35
2023-04-20T20:16:56.011Z,100520.45
2023-04-20T20:26:37.950Z,100513.54
2023-04-20T20:29:23.878Z,100514.70
2023-04-20T20:32:08.943Z,100515.50
2023-04-20T20:34:54.227Z,100514.36
2023-04-20T20:37:40.558Z,100518.38
2023-04-20T20:46:27.570Z,100516.73
2023-04-20T20:49:12.500Z,100512.06
2023-04-20T20:51:57.481Z,100517.36
2023-04-20T20:54:43.044Z,100516.06
2023-04-20T20:57:28.157Z,100520.81
2023-04-20T21:00:13.554Z,100522.88
2023-04-20T21:02:58.689Z,100517.73
2023-04-20T21:05:44.041Z,100515.88
2023-04-20T21:08:29.023Z,100519.98
2023-04-20T21:11:14.168Z,100520.14
2023-04-20T21:14:02.285Z,100523.96
2023-04-20T21:16:47.460Z,100523.66
2023-04-20T21:19:35.184Z,100524.73
2023-04-20T21:22:21.796Z,100520.24
2023-04-20T21:25:07.332Z,100519.34
2023-04-20T21:27:52.368Z,100520.05
2023-04-20T21:30:37.309Z,100519.58
2023-04-20T21:36:15.651Z,100515.45
2023-04-20T21:42:10.625Z,100523.14
2023-04-20T21:44:57.305Z,100518.32
2023-04-20T21:47:44.362Z,100511.73
2023-04-20T21:50:31.605Z,100516.02
2023-04-20T21:53:18.286Z,100518.66
2023-04-20T21:56:05.162Z,100515.31
2023-04-20T21:58:50.986Z,100514.96
2023-04-20T22:01:36.843Z,100514.40
2023-04-20T22:04:25.107Z,100515.34
2023-04-20T22:07:10.844Z,100515.17
2023-04-20T22:09:55.966Z,100514.17
2023-04-20T22:12:42.397Z,100509.73
2023-04-20T22:15:28.931Z,100511.06
2023-04-20T22:18:16.895Z,100511.00
2023-04-20T22:21:02.145Z,100508.21
2023-04-20T22:23:47.632Z,100508.10
2023-04-20T22:26:32.623Z,100503.21
2023-04-20T22:38:21.927Z,100505.82
2023-04-20T22:41:09.844Z,100506.99
2023-04-20T22:43:55.002Z,100509.61
2023-04-20T22:46:41.626Z,100505.94
2023-04-20T22:49:27.501Z,100503.23
2023-04-20T22:52:14.052Z,100504.29
2023-04-20T22:55:03.426Z,100501.43
2023-04-20T22:57:52.276Z,100504.52
2023-04-20T23:00:38.063Z,100499.52
2023-04-20T23:03:23.597Z,100499.80
2023-04-20T23:12:17.356Z,100494.91
2023-04-20T23:15:05.795Z,100491.71
2023-04-20T23:17:52.718Z,100493.03
2023-04-20T23:26:48.981Z,100486.23
2023-04-20T23:36:17.125Z,100483.48
2023-04-20T23:39:02.544Z,100484.66
2023-04-20T23:41:47.849Z,100486.39
2023-04-20T23:53:55.966Z,100474.13
2023-04-20T23:56:41.954Z,100475.45
2023-04-20T23:59:27.416Z,100472.37
